sensor_id;sensor_type;location;lat;lon;timestamp;pressure;altitude;pressure_sealevel;temperature;humidity
10167;BME280;62970;53.130;8.244;2023-03-31T00:48:59;100256.13;;;10.77;58.40
10167;BME280;62970;53.130;8.244;2023-03-31T12:53:59;99389.28;;;13.68;61.33
10167;BME280;62970;53.130;8.244;2023-03-31T12:57:12;99384.34;;;13.78;61.81
10167;BME280;62970;53.130;8.244;2023-03-31T12:59:43;99389.91;;;13.88;61.48
10167;BME280;62970;53.130;8.244;2023-03-31T13:02:31;99383.19;;;13.98;61.54
10167;BME280;62970;53.130;8.244;2023-03-31T13:05:44;99378.31;;;14.06;61.08
10167;BME280;62970;53.130;8.244;2023-03-31T13:09:01;99382.25;;;14.13;61.10
10167;BME280;62970;53.130;8.244;2023-03-31T13:11:38;99387.03;;;14.21;60.77
10167;BME280;62970;53.130;8.244;2023-03-31T13:14:15;99382.47;;;14.24;60.51
10167;BME280;62970;53.130;8.244;2023-03-31T13:16:48;99377.13;;;14.26;60.10
10167;BME280;62970;53.130;8.244;2023-03-31T13:19:28;99376.28;;;14.25;60.26
10167;BME280;62970;53.130;8.244;2023-03-31T13:22:01;99370.94;;;14.27;60.06
10167;BME280;62970;53.130;8.244;2023-03-31T13:24:34;99368.13;;;14.30;60.49
10167;BME280;62970;53.130;8.244;2023-03-31T13:27:28;99362.72;;;14.33;59.93
10167;BME280;62970;53.130;8.244;2023-03-31T13:29:58;99366.94;;;14.35;60.08
10167;BME280;62970;53.130;8.244;2023-03-31T13:32:27;99365.81;;;14.40;60.45
10167;BME280;62970;53.130;8.244;2023-03-31T13:35:00;99369.16;;;14.42;60.39
10167;BME280;62970;53.130;8.244;2023-03-31T13:38:00;99364.22;;;14.51;60.01
10167;BME280;62970;53.130;8.244;2023-03-31T13:41:12;99366.16;;;14.62;60.00
10167;BME280;62970;53.130;8.244;2023-03-31T13:47:39;99354.91;;;14.88;60.39
10167;BME280;62970;53.130;8.244;2023-03-31T13:50:29;99348.03;;;15.00;59.67
10167;BME280;62970;53.130;8.244;2023-03-31T13:53:15;99347.44;;;15.09;59.39
10167;BME280;62970;53.130;8.244;2023-03-31T13:56:29;99344.13;;;15.20;59.48
10167;BME280;62970;53.130;8.244;2023-03-31T13:59:31;99343.25;;;15.34;59.13
10167;BME280;62970;53.130;8.244;2023-03-31T14:02:30;99344.03;;;15.48;58.99
10167;BME280;62970;53.130;8.244;2023-03-31T14:05:23;99344.00;;;15.62;58.76
10167;BME280;62970;53.130;8.244;2023-03-31T14:07:57;99343.59;;;15.69;57.87
10167;BME280;62970;53.130;8.244;2023-03-31T14:10:30;99341.59;;;15.72;58.02
10167;BME280;62970;53.130;8.244;2023-03-31T14:13:11;99336.13;;;15.75;57.96
10167;BME280;62970;53.130;8.244;2023-03-31T14:15:45;99345.50;;;15.79;58.08
10167;BME280;62970;53.130;8.244;2023-03-31T14:18:22;99342.03;;;15.79;57.79
10167;BME280;62970;53.130;8.244;2023-03-31T14:21:09;99332.34;;;15.79;57.19
10167;BME280;62970;53.130;8.244;2023-03-31T14:23:55;99338.84;;;15.74;57.65
10167;BME280;62970;53.130;8.244;2023-03-31T14:26:46;99338.13;;;15.72;57.14
10167;BME280;62970;53.130;8.244;2023-03-31T14:29:25;99331.06;;;15.72;58.00
10167;BME280;62970;53.130;8.244;2023-03-31T14:32:08;99330.56;;;15.80;57.85
10167;BME280;62970;53.130;8.244;2023-03-31T14:34:55;99330.03;;;15.87;57.38
10167;BME280;62970;53.130;8.244;2023-03-31T14:37:28;99330.56;;;15.92;57.41
10167;BME280;62970;53.130;8.244;2023-03-31T14:39:58;99333.19;;;15.92;56.76
10167;BME280;62970;53.130;8.244;2023-03-31T14:42:37;99330.88;;;15.88;57.16
10167;BME280;62970;53.130;8.244;2023-03-31T14:45:17;99333.72;;;15.85;57.41
10167;BME280;62970;53.130;8.244;2023-03-31T14:47:57;99332.44;;;15.78;56.95
10167;BME280;62970;53.130;8.244;2023-03-31T14:50:34;99332.22;;;15.68;57.03
10167;BME280;62970;53.130;8.244;2023-03-31T14:53:11;99337.06;;;15.61;57.15
10167;BME280;62970;53.130;8.244;2023-03-31T14:55:42;99332.91;;;15.57;57.14
10167;BME280;62970;53.130;8.244;2023-03-31T14:58:20;99340.38;;;15.51;57.20
10167;BME280;62970;53.130;8.244;2023-03-31T15:00:55;99330.38;;;15.43;57.43
10167;BME280;62970;53.130;8.244;2023-03-31T15:03:25;99334.22;;;15.38;57.32
10167;BME280;62970;53.130;8.244;2023-03-31T15:05:57;99333.69;;;15.33;57.18
10167;BME280;62970;53.130;8.244;2023-03-31T15:08:28;99333.16;;;15.27;57.17
10167;BME280;62970;53.130;8.244;2023-03-31T15:11:02;99335.50;;;15.18;57.58
10167;BME280;62970;53.130;8.244;2023-03-31T15:13:35;99334.31;;;15.09;57.25
10167;BME280;62970;53.130;8.244;2023-03-31T15:16:39;99328.81;;;14.99;57.85
10167;BME280;62970;53.130;8.244;2023-03-31T15:19:16;99331.19;;;14.90;57.17
10167;BME280;62970;53.130;8.244;2023-03-31T15:21:47;99330.28;;;14.77;57.83
10167;BME280;62970;53.130;8.244;2023-03-31T15:24:22;99325.78;;;14.64;58.29
10167;BME280;62970;53.130;8.244;2023-03-31T15:26:57;99324.78;;;14.53;58.45
10167;BME280;62970;53.130;8.244;2023-03-31T15:29:33;99328.06;;;14.42;58.09
10167;BME280;62970;53.130;8.244;2023-03-31T15:32:16;99328.72;;;14.31;58.17
10167;BME280;62970;53.130;8.244;2023-03-31T15:34:45;99317.97;;;14.22;58.36
10167;BME280;62970;53.130;8.244;2023-03-31T15:37:16;99325.44;;;14.14;58.55
10167;BME280;62970;53.130;8.244;2023-03-31T15:39:48;99317.97;;;14.08;58.77
10167;BME280;62970;53.130;8.244;2023-03-31T15:42:18;99315.63;;;14.03;58.92
10167;BME280;62970;53.130;8.244;2023-03-31T15:44:54;99315.13;;;13.96;58.80
10167;BME280;62970;53.130;8.244;2023-03-31T15:47:28;99316.34;;;13.91;59.08
10167;BME280;62970;53.130;8.244;2023-03-31T15:50:09;99306.25;;;13.85;58.84
10167;BME280;62970;53.130;8.244;2023-03-31T15:52:47;99311.00;;;13.78;58.96
10167;BME280;62970;53.130;8.244;2023-03-31T15:55:26;99312.03;;;13.76;58.85
10167;BME280;62970;53.130;8.244;2023-03-31T15:57:59;99305.28;;;13.71;59.47
10167;BME280;62970;53.130;8.244;2023-03-31T16:00:50;99302.84;;;13.68;59.09
10167;BME280;62970;53.130;8.244;2023-03-31T16:03:28;99310.72;;;13.68;59.51
10167;BME280;62970;53.130;8.244;2023-03-31T16:06:07;99303.88;;;13.66;59.67
10167;BME280;62970;53.130;8.244;2023-03-31T16:08:40;99304.81;;;13.65;59.69
10167;BME280;62970;53.130;8.244;2023-03-31T16:11:14;99302.09;;;13.66;59.66
10167;BME280;62970;53.130;8.244;2023-03-31T16:13:48;99301.25;;;13.66;59.45
10167;BME280;62970;53.130;8.244;2023-03-31T16:16:22;99296.94;;;13.65;59.89
10167;BME280;62970;53.130;8.244;2023-03-31T16:19:01;99301.31;;;13.64;59.90
10167;BME280;62970;53.130;8.244;2023-03-31T16:21:36;99297.00;;;13.63;60.12
10167;BME280;62970;53.130;8.244;2023-03-31T16:24:07;99294.38;;;13.63;59.68
10167;BME280;62970;53.130;8.244;2023-03-31T16:26:37;99295.41;;;13.61;59.60
10167;BME280;62970;53.130;8.244;2023-03-31T16:29:06;99293.91;;;13.57;59.81
10167;BME280;62970;53.130;8.244;2023-03-31T16:31:37;99293.25;;;13.53;59.56
10167;BME280;62970;53.130;8.244;2023-03-31T16:34:10;99283.03;;;13.49;59.57
10167;BME280;62970;53.130;8.244;2023-03-31T16:36:40;99285.84;;;13.46;60.02
10167;BME280;62970;53.130;8.244;2023-03-31T16:39:12;99288.72;;;13.41;59.90
10167;BME280;62970;53.130;8.244;2023-03-31T16:41:41;99288.06;;;13.37;59.46
10167;BME280;62970;53.130;8.244;2023-03-31T16:44:10;99283.19;;;13.31;60.01
10167;BME280;62970;53.130;8.244;2023-03-31T16:46:40;99287.94;;;13.25;60.07
10167;BME280;62970;53.130;8.244;2023-03-31T16:49:12;99282.22;;;13.18;59.94
10167;BME280;62970;53.130;8.244;2023-03-31T16:51:41;99281.53;;;13.15;60.00
10167;BME280;62970;53.130;8.244;2023-03-31T16:54:10;99283.56;;;13.10;60.23
10167;BME280;62970;53.130;8.244;2023-03-31T16:56:39;99278.69;;;13.03;59.82
10167;BME280;62970;53.130;8.244;2023-03-31T16:59:09;99282.41;;;12.99;60.33
10167;BME280;62970;53.130;8.244;2023-03-31T17:01:38;99279.22;;;12.94;59.85
10167;BME280;62970;53.130;8.244;2023-03-31T17:04:08;99278.63;;;12.89;60.31
10167;BME280;62970;53.130;8.244;2023-03-31T17:06:40;99285.91;;;12.84;60.22
10167;BME280;62970;53.130;8.244;2023-03-31T17:09:11;99284.38;;;12.80;60.13
10167;BME280;62970;53.130;8.244;2023-03-31T17:11:41;99275.09;;;12.74;60.64
10167;BME280;62970;53.130;8.244;2023-03-31T17:16:50;99282.44;;;12.68;60.46
10167;BME280;62970;53.130;8.244;2023-03-31T17:19:19;99279.25;;;12.63;60.20
10167;BME280;62970;53.130;8.244;2023-03-31T17:21:53;99281.28;;;12.56;60.67
10167;BME280;62970;53.130;8.244;2023-03-31T17:24:27;99277.25;;;12.51;60.87
10167;BME280;62970;53.130;8.244;2023-03-31T17:26:56;99271.41;;;12.45;60.71
10167;BME280;62970;53.130;8.244;2023-03-31T17:29:26;99269.16;;;12.39;60.66
10167;BME280;62970;53.130;8.244;2023-03-31T17:31:57;99272.94;;;12.34;60.85
10167;BME280;62970;53.130;8.244;2023-03-31T17:34:26;99274.94;;;12.29;61.14
10167;BME280;62970;53.130;8.244;2023-03-31T17:36:59;99270.81;;;12.25;60.79
10167;BME280;62970;53.130;8.244;2023-03-31T17:39:31;99272.00;;;12.19;60.75
10167;BME280;62970;53.130;8.244;2023-03-31T17:42:06;99271.31;;;12.16;61.12
10167;BME280;62970;53.130;8.244;2023-03-31T17:44:46;99276.78;;;12.11;60.89
10167;BME280;62970;53.130;8.244;2023-03-31T17:47:19;99276.94;;;12.08;61.50
10167;BME280;62970;53.130;8.244;2023-03-31T17:49:49;99276.25;;;12.04;61.11
10167;BME280;62970;53.130;8.244;2023-03-31T17:52:21;99286.13;;;11.99;61.37
10167;BME280;62970;53.130;8.244;2023-03-31T17:54:51;99287.97;;;11.97;61.27
10167;BME280;62970;53.130;8.244;2023-03-31T17:57:23;99281.22;;;11.93;61.64
10167;BME280;62970;53.130;8.244;2023-03-31T17:59:52;99290.06;;;11.91;61.45
10167;BME280;62970;53.130;8.244;2023-03-31T18:02:22;99288.53;;;11.87;61.80
10167;BME280;62970;53.130;8.244;2023-03-31T18:04:52;99285.16;;;11.85;61.73
10167;BME280;62970;53.130;8.244;2023-03-31T18:07:23;99294.75;;;11.84;61.76
10167;BME280;62970;53.130;8.244;2023-03-31T18:09:53;99290.38;;;11.85;61.99
10167;BME280;62970;53.130;8.244;2023-03-31T18:12:22;99283.47;;;11.84;62.04
10167;BME280;62970;53.130;8.244;2023-03-31T18:14:53;99296.50;;;11.84;62.10
10167;BME280;62970;53.130;8.244;2023-03-31T18:17:23;99296.59;;;11.82;62.36
10167;BME280;62970;53.130;8.244;2023-03-31T18:19:53;99301.91;;;11.80;62.00
10167;BME280;62970;53.130;8.244;2023-03-31T18:22:25;99300.38;;;11.76;62.05
10167;BME280;62970;53.130;8.244;2023-03-31T18:24:55;99302.22;;;11.74;62.58
10167;BME280;62970;53.130;8.244;2023-03-31T18:27:26;99303.22;;;11.72;62.80
10167;BME280;62970;53.130;8.244;2023-03-31T18:29:57;99300.69;;;11.70;63.20
10167;BME280;62970;53.130;8.244;2023-03-31T18:32:28;99305.13;;;11.68;63.07
10167;BME280;62970;53.130;8.244;2023-03-31T18:34:57;99306.06;;;11.67;63.32
10167;BME280;62970;53.130;8.244;2023-03-31T18:37:30;99312.34;;;11.63;63.26
10167;BME280;62970;53.130;8.244;2023-03-31T18:40:00;99309.81;;;11.62;63.23
10167;BME280;62970;53.130;8.244;2023-03-31T18:42:29;99314.19;;;11.61;63.48
10167;BME280;62970;53.130;8.244;2023-03-31T18:44:59;99304.69;;;11.60;63.97
10167;BME280;62970;53.130;8.244;2023-03-31T18:47:28;99311.75;;;11.58;63.77
10167;BME280;62970;53.130;8.244;2023-03-31T18:49:58;99306.69;;;11.55;63.78
10167;BME280;62970;53.130;8.244;2023-03-31T18:52:31;99307.69;;;11.53;63.46
10167;BME280;62970;53.130;8.244;2023-03-31T18:55:01;99305.22;;;11.50;63.78
10167;BME280;62970;53.130;8.244;2023-03-31T18:57:31;99307.00;;;11.49;64.26
10167;BME280;62970;53.130;8.244;2023-03-31T19:00:00;99307.06;;;11.47;64.07
10167;BME280;62970;53.130;8.244;2023-03-31T19:02:31;99310.69;;;11.45;64.35
10167;BME280;62970;53.130;8.244;2023-03-31T19:05:00;99317.66;;;11.44;64.44
10167;BME280;62970;53.130;8.244;2023-03-31T19:07:33;99313.44;;;11.42;64.10
10167;BME280;62970;53.130;8.244;2023-03-31T19:10:03;99313.47;;;11.40;63.73
10167;BME280;62970;53.130;8.244;2023-03-31T19:12:33;99313.56;;;11.39;64.09
10167;BME280;62970;53.130;8.244;2023-03-31T19:15:04;99319.69;;;11.38;64.15
10167;BME280;62970;53.130;8.244;2023-03-31T19:17:34;99322.38;;;11.36;64.11
10167;BME280;62970;53.130;8.244;2023-03-31T19:20:05;99318.94;;;11.36;64.60
10167;BME280;62970;53.130;8.244;2023-03-31T19:22:41;99323.44;;;11.32;64.32
10167;BME280;62970;53.130;8.244;2023-03-31T19:25:12;99326.91;;;11.33;64.08
10167;BME280;62970;53.130;8.244;2023-03-31T19:27:43;99326.91;;;11.33;64.13
10167;BME280;62970;53.130;8.244;2023-03-31T19:30:16;99332.19;;;11.31;64.68
10167;BME280;62970;53.130;8.244;2023-03-31T19:32:49;99331.34;;;11.31;64.43
10167;BME280;62970;53.130;8.244;2023-03-31T19:35:19;99337.50;;;11.30;64.30
10167;BME280;62970;53.130;8.244;2023-03-31T19:37:52;99332.44;;;11.27;64.82
10167;BME280;62970;53.130;8.244;2023-03-31T19:40:22;99326.44;;;11.25;64.23
10167;BME280;62970;53.130;8.244;2023-03-31T19:42:53;99327.44;;;11.22;64.20
10167;BME280;62970;53.130;8.244;2023-03-31T19:45:24;99328.50;;;11.18;64.37
10167;BME280;62970;53.130;8.244;2023-03-31T19:47:53;99332.03;;;11.17;64.63
10167;BME280;62970;53.130;8.244;2023-03-31T19:50:25;99332.19;;;11.14;64.59
10167;BME280;62970;53.130;8.244;2023-03-31T19:52:58;99332.31;;;11.11;64.88
10167;BME280;62970;53.130;8.244;2023-03-31T19:55:27;99332.47;;;11.08;64.42
10167;BME280;62970;53.130;8.244;2023-03-31T19:57:57;99333.53;;;11.04;64.68
10167;BME280;62970;53.130;8.244;2023-03-31T20:00:26;99328.63;;;10.98;64.77
10167;BME280;62970;53.130;8.244;2023-03-31T20:02:56;99329.69;;;10.94;64.98
10167;BME280;62970;53.130;8.244;2023-03-31T20:05:26;99338.56;;;10.90;65.08
10167;BME280;62970;53.130;8.244;2023-03-31T20:07:58;99333.50;;;10.87;65.20
10167;BME280;62970;53.130;8.244;2023-03-31T20:10:27;99335.34;;;10.84;65.31
10167;BME280;62970;53.130;8.244;2023-03-31T20:12:57;99331.19;;;10.80;64.90
10167;BME280;62970;53.130;8.244;2023-03-31T20:15:27;99336.53;;;10.77;65.05
10167;BME280;62970;53.130;8.244;2023-03-31T20:17:57;99337.53;;;10.75;65.11
10167;BME280;62970;53.130;8.244;2023-03-31T20:20:27;99335.06;;;10.72;65.37
10167;BME280;62970;53.130;8.244;2023-03-31T20:22:59;99339.50;;;10.70;65.55
10167;BME280;62970;53.130;8.244;2023-03-31T20:25:28;99330.06;;;10.67;65.78
10167;BME280;62970;53.130;8.244;2023-03-31T20:27:57;99335.34;;;10.66;65.54
10167;BME280;62970;53.130;8.244;2023-03-31T20:30:27;99333.66;;;10.65;65.39
10167;BME280;62970;53.130;8.244;2023-03-31T20:32:56;99328.50;;;10.63;65.79
10167;BME280;62970;53.130;8.244;2023-03-31T20:35:25;99339.84;;;10.62;65.95
10167;BME280;62970;53.130;8.244;2023-03-31T20:37:54;99336.41;;;10.62;65.83
10167;BME280;62970;53.130;8.244;2023-03-31T20:40:27;99343.53;;;10.58;65.60
10167;BME280;62970;53.130;8.244;2023-03-31T20:42:57;99336.69;;;10.56;65.74
10167;BME280;62970;53.130;8.244;2023-03-31T20:45:27;99334.16;;;10.54;66.11
10167;BME280;62970;53.130;8.244;2023-03-31T20:47:56;99336.81;;;10.52;66.03
10167;BME280;62970;53.130;8.244;2023-03-31T20:50:25;99332.53;;;10.51;65.81
10167;BME280;62970;53.130;8.244;2023-03-31T20:52:56;99341.34;;;10.49;66.31
10167;BME280;62970;53.130;8.244;2023-03-31T20:55:29;99335.41;;;10.45;66.26
10167;BME280;62970;53.130;8.244;2023-03-31T20:57:58;99334.56;;;10.45;66.46
10167;BME280;62970;53.130;8.244;2023-03-31T21:00:28;99339.00;;;10.43;65.88
10167;BME280;62970;53.130;8.244;2023-03-31T21:02:57;99338.22;;;10.41;65.91
10167;BME280;62970;53.130;8.244;2023-03-31T21:05:28;99339.28;;;10.37;66.01
10167;BME280;62970;53.130;8.244;2023-03-31T21:07:57;99342.03;;;10.34;66.48
10167;BME280;62970;53.130;8.244;2023-03-31T21:10:30;99348.22;;;10.31;66.19
10167;BME280;62970;53.130;8.244;2023-03-31T21:12:59;99345.63;;;10.31;66.46
10167;BME280;62970;53.130;8.244;2023-03-31T21:15:29;99346.59;;;10.29;66.28
10167;BME280;62970;53.130;8.244;2023-03-31T21:17:58;99343.28;;;10.25;66.32
10167;BME280;62970;53.130;8.244;2023-03-31T21:20:28;99348.56;;;10.24;66.30
10167;BME280;62970;53.130;8.244;2023-03-31T21:22:57;99337.44;;;10.20;66.20
10167;BME280;62970;53.130;8.244;2023-03-31T21:25:31;99344.47;;;10.18;66.44
10167;BME280;62970;53.130;8.244;2023-03-31T21:28:00;99338.44;;;10.16;66.64
10167;BME280;62970;53.130;8.244;2023-03-31T21:30:29;99342.88;;;10.14;66.63
10167;BME280;62970;53.130;8.244;2023-03-31T21:32:58;99337.75;;;10.12;66.60
10167;BME280;62970;53.130;8.244;2023-03-31T21:35:31;99349.13;;;10.10;66.54
10167;BME280;62970;53.130;8.244;2023-03-31T21:38:01;99347.44;;;10.09;66.57
10167;BME280;62970;53.130;8.244;2023-03-31T21:40:34;99351.88;;;10.07;66.45
10167;BME280;62970;53.130;8.244;2023-03-31T21:43:03;99344.06;;;10.07;66.60
10167;BME280;62970;53.130;8.244;2023-03-31T21:45:34;99340.63;;;10.06;66.79
10167;BME280;62970;53.130;8.244;2023-03-31T21:48:04;99349.28;;;10.07;66.99
10167;BME280;62970;53.130;8.244;2023-03-31T21:50:34;99345.75;;;10.08;66.84
10167;BME280;62970;53.130;8.244;2023-03-31T21:53:04;99348.38;;;10.08;67.57
10167;BME280;62970;53.130;8.244;2023-03-31T21:55:37;99341.41;;;10.08;66.97
10167;BME280;62970;53.130;8.244;2023-03-31T21:58:07;99345.69;;;10.09;67.28
10167;BME280;62970;53.130;8.244;2023-03-31T22:00:36;99348.28;;;10.09;67.43
10167;BME280;62970;53.130;8.244;2023-03-31T22:03:05;99348.28;;;10.09;67.30
10167;BME280;62970;53.130;8.244;2023-03-31T22:05:34;99350.91;;;10.09;67.11
10167;BME280;62970;53.130;8.244;2023-03-31T22:08:04;99350.06;;;10.09;67.47
10167;BME280;62970;53.130;8.244;2023-03-31T22:10:36;99350.97;;;10.08;67.05
10167;BME280;62970;53.130;8.244;2023-03-31T22:13:05;99343.22;;;10.06;67.36
10167;BME280;62970;53.130;8.244;2023-03-31T22:15:34;99342.38;;;10.06;67.13
10167;BME280;62970;53.130;8.244;2023-03-31T22:18:04;99350.25;;;10.04;67.03
10167;BME280;62970;53.130;8.244;2023-03-31T22:20:33;99348.63;;;10.02;67.28
10167;BME280;62970;53.130;8.244;2023-03-31T22:23:03;99349.56;;;9.99;66.98
10167;BME280;62970;53.130;8.244;2023-03-31T22:25:33;99352.38;;;9.95;67.37
10167;BME280;62970;53.130;8.244;2023-03-31T22:28:06;99355.06;;;9.93;67.36
10167;BME280;62970;53.130;8.244;2023-03-31T22:30:35;99351.66;;;9.91;67.08
10167;BME280;62970;53.130;8.244;2023-03-31T22:33:05;99350.88;;;9.89;67.61
10167;BME280;62970;53.130;8.244;2023-03-31T22:35:34;99347.50;;;9.87;67.18
10167;BME280;62970;53.130;8.244;2023-03-31T22:38:03;99349.38;;;9.83;67.62
10167;BME280;62970;53.130;8.244;2023-03-31T22:40:33;99353.81;;;9.81;67.42
10167;BME280;62970;53.130;8.244;2023-03-31T22:43:05;99348.69;;;9.80;67.33
10167;BME280;62970;53.130;8.244;2023-03-31T22:45:35;99350.44;;;9.79;67.60
10167;BME280;62970;53.130;8.244;2023-03-31T22:48:05;99358.31;;;9.78;67.83
10167;BME280;62970;53.130;8.244;2023-03-31T22:50:35;99360.00;;;9.79;67.62
10167;BME280;62970;53.130;8.244;2023-03-31T22:53:04;99356.56;;;9.78;67.93
10167;BME280;62970;53.130;8.244;2023-03-31T22:55:34;99351.41;;;9.77;67.53
10167;BME280;62970;53.130;8.244;2023-03-31T22:58:06;99354.06;;;9.75;67.49
10167;BME280;62970;53.130;8.244;2023-03-31T23:00:36;99357.59;;;9.74;68.02
10167;BME280;62970;53.130;8.244;2023-03-31T23:03:05;99361.16;;;9.72;67.73
10167;BME280;62970;53.130;8.244;2023-03-31T23:05:35;99356.94;;;9.69;67.72
10167;BME280;62970;53.130;8.244;2023-03-31T23:08:04;99357.84;;;9.68;68.14
10167;BME280;62970;53.130;8.244;2023-03-31T23:10:34;99362.22;;;9.68;67.89
10167;BME280;62970;53.130;8.244;2023-03-31T23:13:06;99358.75;;;9.67;67.85
10167;BME280;62970;53.130;8.244;2023-03-31T23:15:35;99357.84;;;9.68;68.04
10167;BME280;62970;53.130;8.244;2023-03-31T23:18:05;99365.66;;;9.68;68.44
10167;BME280;62970;53.130;8.244;2023-03-31T23:20:38;99356.09;;;9.69;68.34
10167;BME280;62970;53.130;8.244;2023-03-31T23:23:07;99361.22;;;9.70;68.25
10167;BME280;62970;53.130;8.244;2023-03-31T23:25:36;99365.53;;;9.71;68.10
10167;BME280;62970;53.130;8.244;2023-03-31T23:28:08;99364.69;;;9.71;68.22
10167;BME280;62970;53.130;8.244;2023-03-31T23:30:38;99355.97;;;9.72;68.21
10167;BME280;62970;53.130;8.244;2023-03-31T23:33:08;99359.41;;;9.72;68.21
10167;BME280;62970;53.130;8.244;2023-03-31T23:35:37;99361.09;;;9.73;68.73
10167;BME280;62970;53.130;8.244;2023-03-31T23:38:07;99363.72;;;9.73;68.55
10167;BME280;62970;53.130;8.244;2023-03-31T23:40:36;99357.72;;;9.71;68.39
10167;BME280;62970;53.130;8.244;2023-03-31T23:43:08;99356.09;;;9.69;68.85
10167;BME280;62970;53.130;8.244;2023-03-31T23:45:40;99358.75;;;9.67;68.86
10167;BME280;62970;53.130;8.244;2023-03-31T23:48:09;99356.22;;;9.66;69.10
10167;BME280;62970;53.130;8.244;2023-03-31T23:50:38;99350.16;;;9.65;69.04
10167;BME280;62970;53.130;8.244;2023-03-31T23:53:07;99352.84;;;9.64;69.61
10167;BME280;62970;53.130;8.244;2023-03-31T23:55:37;99345.94;;;9.63;69.17
10167;BME280;62970;53.130;8.244;2023-03-31T23:58:09;99351.28;;;9.60;69.31
